Time;durP1;ratioP1;P1;durP2;ratioP2;P2;SDS_P1;SDS_P2;PMS_P1;PMS_P2;Temp;Humidity;BMP_temperature;BMP_pressure;BME280_temperature;BME280_humidity;BME280_pressure;Samples;Min_cycle;Max_cycle;Signal;HPM_P1;HPM_P2
2023/01/07 00:01:22;;;;;;;71.30;38.92;;;8.50;99.90;;;;;;6208156;23;20004;-74
2023/01/07 00:03:49;;;;;;;74.90;39.50;;;8.60;99.90;;;;;;6233158;23;20240;-74
2023/01/07 00:06:16;;;;;;;72.38;37.33;;;8.50;99.90;;;;;;6212034;23;20000;-74
2023/01/07 00:08:44;;;;;;;72.75;39.83;;;8.50;99.90;;;;;;6206526;23;20008;-74
2023/01/07 00:11:19;;;;;;;69.25;37.45;;;8.50;99.90;;;;;;6235831;22;20043;-73
2023/01/07 00:13:45;;;;;;;72.80;38.83;;;8.40;99.90;;;;;;6232899;23;20024;-74
2023/01/07 00:16:14;;;;;;;65.80;36.80;;;8.40;99.90;;;;;;6234481;22;20391;-74
2023/01/07 00:18:40;;;;;;;69.95;38.25;;;8.40;99.90;;;;;;6204099;23;20031;-74
2023/01/07 00:21:10;;;;;;;67.93;37.22;;;8.50;99.90;;;;;;6235693;22;20391;-84
2023/01/07 00:23:41;;;;;;;67.57;37.15;;;8.40;99.90;;;;;;6233195;22;19996;-84
2023/01/07 00:26:18;;;;;;;68.22;37.47;;;8.40;99.90;;;;;;6233557;22;20515;-84
2023/01/07 00:28:46;;;;;;;68.63;37.88;;;8.40;99.90;;;;;;6204972;22;20496;-83
2023/01/07 00:31:14;;;;;;;70.28;37.90;;;8.40;99.90;;;;;;6203580;23;20024;-84
2023/01/07 00:33:48;;;;;;;67.50;36.10;;;8.40;99.90;;;;;;6199358;23;20528;-84
2023/01/07 00:36:18;;;;;;;65.60;36.53;;;8.40;99.90;;;;;;6204181;23;20426;-83
2023/01/07 00:38:47;;;;;;;66.13;37.05;;;8.40;99.90;;;;;;6202813;23;20391;-84
2023/01/07 00:41:13;;;;;;;67.28;37.58;;;8.40;99.90;;;;;;6208382;23;20082;-84
2023/01/07 00:43:38;;;;;;;68.05;37.08;;;8.40;99.90;;;;;;6204285;23;20460;-83
2023/01/07 00:46:04;;;;;;;63.20;38.15;;;8.40;99.90;;;;;;6207123;23;20417;-84
2023/01/07 00:48:30;;;;;;;65.63;36.83;;;8.30;99.90;;;;;;6199712;23;20433;-84
2023/01/07 00:50:55;;;;;;;65.85;35.78;;;8.30;99.90;;;;;;6206176;23;20004;-84
2023/01/07 00:53:22;;;;;;;67.75;35.55;;;8.30;99.90;;;;;;6206380;23;20009;-84
2023/01/07 00:55:49;;;;;;;63.90;34.97;;;8.20;99.90;;;;;;6208000;23;20039;-84
2023/01/07 00:58:19;;;;;;;63.63;35.83;;;8.20;99.90;;;;;;6207602;23;20007;-84
2023/01/07 01:00:48;;;;;;;65.05;36.13;;;8.10;99.90;;;;;;6210110;23;20337;-84
2023/01/07 01:03:14;;;;;;;61.22;34.50;;;8.10;99.90;;;;;;6207539;23;20605;-84
2023/01/07 01:05:40;;;;;;;61.13;34.78;;;8.10;99.90;;;;;;6207995;23;20004;-84
2023/01/07 01:08:07;;;;;;;58.55;33.50;;;8.10;99.90;;;;;;6207609;23;20079;-84
2023/01/07 01:10:33;;;;;;;61.40;33.72;;;8.10;99.90;;;;;;6207434;23;20067;-84
2023/01/07 01:13:00;;;;;;;62.45;35.03;;;8.20;99.90;;;;;;6201185;23;20337;-84
2023/01/07 01:15:26;;;;;;;66.05;34.40;;;8.10;99.90;;;;;;6207776;23;20003;-84
2023/01/07 01:17:52;;;;;;;63.88;34.85;;;8.20;99.90;;;;;;6204316;23;20233;-83
2023/01/07 01:20:19;;;;;;;63.25;34.55;;;8.20;99.90;;;;;;6204795;23;19996;-84
2023/01/07 01:22:44;;;;;;;62.30;35.83;;;8.20;99.90;;;;;;6199576;23;20027;-84
2023/01/07 01:25:11;;;;;;;59.88;32.67;;;8.20;99.90;;;;;;6204410;23;20177;-83
2023/01/07 01:27:37;;;;;;;64.47;34.38;;;8.10;99.90;;;;;;6201130;23;20091;-84
2023/01/07 01:30:03;;;;;;;57.30;31.75;;;8.10;99.90;;;;;;6203087;23;20013;-84
2023/01/07 01:32:29;;;;;;;57.75;32.85;;;8.20;99.90;;;;;;6201492;23;20070;-84
2023/01/07 01:34:55;;;;;;;58.55;32.55;;;8.20;99.90;;;;;;6205084;23;20008;-84
2023/01/07 01:37:21;;;;;;;59.38;32.08;;;8.20;99.90;;;;;;6202049;23;20027;-84
2023/01/07 01:39:46;;;;;;;59.42;31.73;;;8.10;99.90;;;;;;6204326;23;20012;-84
2023/01/07 01:42:19;;;;;;;54.20;32.92;;;8.10;99.90;;;;;;6200372;23;20009;-84
2023/01/07 01:44:45;;;;;;;61.95;33.38;;;8.10;99.90;;;;;;6204223;23;19997;-84
2023/01/07 01:47:27;;;;;;;58.83;31.60;;;8.20;99.90;;;;;;6202813;23;20012;-83
2023/01/07 01:50:13;;;;;;;;;;;8.20;99.90;;;;;;6208594;23;20008;-84
2023/01/07 01:52:50;;;;;;;56.65;30.90;;;8.20;99.90;;;;;;6201478;23;19904;-84
2023/01/07 01:55:19;;;;;;;59.15;31.45;;;8.10;99.90;;;;;;6203519;23;20011;-84
2023/01/07 01:57:47;;;;;;;54.35;30.00;;;8.10;99.90;;;;;;6200772;23;20004;-84
2023/01/07 02:00:15;;;;;;;57.03;31.00;;;8.10;99.90;;;;;;6202969;23;20012;-84
2023/01/07 02:02:46;;;;;;;54.83;32.00;;;8.10;99.90;;;;;;6198660;23;20264;-84
2023/01/07 02:05:12;;;;;;;53.55;30.95;;;8.10;99.90;;;;;;6203240;23;19996;-84
2023/01/07 02:07:38;;;;;;;50.70;29.63;;;8.20;99.90;;;;;;6201340;23;20008;-84
2023/01/07 02:10:19;;;;;;;53.65;31.10;;;8.10;99.90;;;;;;6204239;23;20004;-84
2023/01/07 02:12:48;;;;;;;52.15;29.58;;;8.10;99.90;;;;;;6201879;23;20023;-84
2023/01/07 02:15:29;;;;;;;56.63;29.73;;;8.10;99.90;;;;;;6202228;23;20013;-84
2023/01/07 02:18:00;;;;;;;59.50;31.27;;;8.10;99.90;;;;;;6201500;23;20429;-83
2023/01/07 02:20:51;;;;;;;52.25;29.63;;;8.10;99.90;;;;;;6205281;23;20008;-84
2023/01/07 02:23:48;;;;;;;53.50;29.52;;;8.10;99.90;;;;;;6205615;23;20382;-84
2023/01/07 02:26:33;;;;;;;55.13;29.92;;;8.00;99.90;;;;;;6072677;23;20332;-84
2023/01/07 02:29:08;;;;;;;51.20;28.38;;;8.10;99.90;;;;;;6203793;23;20063;-83
2023/01/07 02:32:10;;;;;;;57.35;31.02;;;8.10;99.90;;;;;;6231399;22;20005;-84
2023/01/07 02:34:56;;;;;;;51.25;29.02;;;8.10;99.90;;;;;;6233916;22;20004;-83
2023/01/07 02:37:27;;;;;;;56.40;31.00;;;8.10;99.90;;;;;;6231534;22;20015;-84
2023/01/07 02:40:05;;;;;;;53.13;28.30;;;8.10;99.90;;;;;;6233206;22;20087;-84
2023/01/07 02:42:59;;;;;;;48.97;28.70;;;8.20;99.90;;;;;;6206047;22;20201;-83
2023/01/07 02:45:52;;;;;;;55.50;29.70;;;8.10;99.90;;;;;;6232672;23;20004;-84
2023/01/07 02:48:20;;;;;;;53.15;29.58;;;8.10;99.90;;;;;;6233487;23;20452;-83
2023/01/07 02:50:46;;;;;;;51.47;29.92;;;8.10;99.90;;;;;;6232261;23;20522;-84
2023/01/07 02:53:16;;;;;;;55.53;30.98;;;8.00;99.90;;;;;;6234785;22;20000;-83
2023/01/07 02:55:51;;;;;;;54.85;30.05;;;8.10;99.90;;;;;;6206229;23;20034;-83
2023/01/07 02:58:54;;;;;;;52.03;28.50;;;8.00;99.90;;;;;;6236793;22;20005;-83
2023/01/07 03:01:44;;;;;;;53.67;29.77;;;7.90;99.90;;;;;;6079235;23;20090;-84
2023/01/07 03:04:21;;;;;;;52.47;29.10;;;7.90;99.90;;;;;;6230084;22;20031;-83
2023/01/07 03:07:12;;;;;;;54.13;29.55;;;7.90;99.90;;;;;;6235163;23;20024;-83
2023/01/07 03:09:47;;;;;;;54.33;29.65;;;7.90;99.90;;;;;;6211170;22;20080;-83
2023/01/07 03:12:21;;;;;;;55.17;29.23;;;7.90;99.90;;;;;;6238167;22;20000;-83
2023/01/07 03:15:13;;;;;;;52.42;28.85;;;7.90;99.90;;;;;;6240619;22;20426;-83
2023/01/07 03:17:52;;;;;;;53.90;30.02;;;7.90;99.90;;;;;;6219536;23;20031;-83
2023/01/07 03:20:21;;;;;;;59.70;30.27;;;7.90;99.90;;;;;;6246428;22;20008;-84
2023/01/07 03:22:48;;;;;;;59.38;31.33;;;8.00;99.90;;;;;;6243540;22;20022;-83
2023/01/07 03:25:16;;;;;;;57.40;31.05;;;8.00;99.90;;;;;;6217094;23;20010;-84
2023/01/07 03:27:44;;;;;;;56.22;29.85;;;7.90;99.90;;;;;;6218377;22;20445;-84
2023/01/07 03:30:13;;;;;;;59.55;31.10;;;8.00;99.90;;;;;;6244355;22;20448;-84
2023/01/07 03:32:47;;;;;;;58.30;30.20;;;8.00;99.90;;;;;;6244513;22;20012;-84
2023/01/07 03:35:13;;;;;;;57.05;30.70;;;8.00;99.90;;;;;;6244637;22;20348;-84
2023/01/07 03:37:41;;;;;;;58.60;31.25;;;7.90;99.90;;;;;;6244306;22;20007;-83
2023/01/07 03:40:09;;;;;;;54.67;31.98;;;7.90;99.90;;;;;;6217666;23;20028;-84
2023/01/07 03:42:40;;;;;;;65.07;33.22;;;7.90;99.90;;;;;;6245450;22;20425;-84
2023/01/07 03:45:06;;;;;;;59.03;30.92;;;7.90;99.90;;;;;;6217339;23;20009;-84
2023/01/07 03:47:33;;;;;;;63.15;32.33;;;7.90;99.90;;;;;;6244299;22;20075;-84
2023/01/07 03:50:02;;;;;;;61.45;31.85;;;7.90;99.90;;;;;;6217551;23;20179;-83
2023/01/07 03:52:27;;;;;;;62.88;32.55;;;7.90;99.90;;;;;;6244350;23;20007;-84
2023/01/07 03:54:53;;;;;;;58.58;31.33;;;7.90;99.90;;;;;;6244540;22;20000;-84
2023/01/07 03:57:19;;;;;;;63.70;32.70;;;8.00;99.90;;;;;;6244696;22;20004;-83
2023/01/07 03:59:44;;;;;;;56.47;31.20;;;7.90;99.90;;;;;;6245248;22;20010;-84
2023/01/07 04:02:10;;;;;;;63.35;31.27;;;8.00;99.90;;;;;;6245293;23;20031;-84
2023/01/07 04:04:36;;;;;;;59.10;31.88;;;8.00;99.90;;;;;;6244553;23;20111;-84
2023/01/07 04:07:01;;;;;;;58.80;30.35;;;8.00;99.90;;;;;;6244373;23;20008;-83
2023/01/07 04:09:27;;;;;;;59.63;30.67;;;8.00;99.90;;;;;;6243937;23;20004;-84
2023/01/07 04:11:53;;;;;;;60.63;31.85;;;8.00;99.90;;;;;;6244189;23;20651;-84
2023/01/07 04:14:18;;;;;;;55.95;30.10;;;7.90;99.90;;;;;;6217100;23;20089;-84
2023/01/07 04:16:44;;;;;;;66.53;33.13;;;7.90;99.90;;;;;;6244172;22;20004;-84
2023/01/07 04:19:10;;;;;;;57.00;29.48;;;7.90;99.90;;;;;;6243871;22;20007;-84
2023/01/07 04:21:36;;;;;;;56.80;30.88;;;7.90;99.90;;;;;;6244107;22;20015;-83
2023/01/07 04:24:04;;;;;;;58.72;31.58;;;7.90;99.90;;;;;;6244132;22;20079;-84
2023/01/07 04:26:31;;;;;;;58.90;30.80;;;7.80;99.90;;;;;;6217258;23;20004;-84
2023/01/07 04:28:56;;;;;;;60.35;31.85;;;7.90;99.90;;;;;;6216284;23;20474;-84
2023/01/07 04:31:22;;;;;;;53.38;28.02;;;7.90;99.90;;;;;;6243930;22;20016;-84
2023/01/07 04:33:48;;;;;;;58.95;29.98;;;7.90;99.90;;;;;;6217097;23;20090;-84
2023/01/07 04:36:16;;;;;;;57.90;29.33;;;7.90;99.90;;;;;;6216375;23;20420;-84
2023/01/07 04:38:41;;;;;;;55.67;29.27;;;7.90;99.90;;;;;;6244499;23;20070;-84
2023/01/07 04:41:07;;;;;;;54.78;29.25;;;7.90;99.90;;;;;;6217870;23;20432;-84
2023/01/07 04:43:33;;;;;;;58.28;29.58;;;7.90;99.90;;;;;;6218073;23;20400;-83
2023/01/07 04:45:58;;;;;;;56.22;29.00;;;7.90;99.90;;;;;;6244034;22;20007;-83
2023/01/07 04:48:24;;;;;;;54.97;28.25;;;7.80;99.90;;;;;;6217181;23;20329;-83
2023/01/07 04:50:50;;;;;;;59.33;29.08;;;7.80;99.90;;;;;;6242818;22;19997;-83
2023/01/07 04:53:15;;;;;;;53.00;27.55;;;7.90;99.90;;;;;;6243072;22;20493;-83
2023/01/07 04:55:41;;;;;;;53.15;30.00;;;7.90;99.90;;;;;;6243066;22;19999;-83
2023/01/07 04:58:07;;;;;;;53.03;28.88;;;8.00;99.90;;;;;;6242660;22;20000;-84
2023/01/07 05:00:33;;;;;;;54.75;28.85;;;7.90;99.90;;;;;;6215824;23;20000;-84
2023/01/07 05:02:58;;;;;;;57.83;28.98;;;7.90;99.90;;;;;;6242821;22;20095;-83
2023/01/07 05:05:24;;;;;;;53.80;27.90;;;7.90;99.90;;;;;;6244822;22;20004;-84
2023/01/07 05:07:50;;;;;;;54.40;28.65;;;7.90;99.90;;;;;;6217838;23;20312;-84
2023/01/07 05:10:15;;;;;;;57.10;29.25;;;8.00;99.90;;;;;;6218098;23;20262;-84
2023/01/07 05:12:41;;;;;;;54.13;28.55;;;8.00;99.90;;;;;;6218110;23;20004;-84
2023/01/07 05:15:07;;;;;;;55.22;28.15;;;8.10;99.90;;;;;;6244760;22;20336;-83
2023/01/07 05:17:36;;;;;;;50.97;27.17;;;8.10;99.90;;;;;;6244821;22;20008;-83
2023/01/07 05:20:04;;;;;;;51.28;27.65;;;8.10;99.90;;;;;;6217937;23;20008;-83
2023/01/07 05:22:30;;;;;;;58.13;29.77;;;8.20;99.90;;;;;;6244873;23;20050;-83
2023/01/07 05:24:55;;;;;;;55.25;29.30;;;8.10;99.90;;;;;;6244890;23;20471;-83
2023/01/07 05:27:21;;;;;;;56.60;29.58;;;8.20;99.90;;;;;;6217965;23;20002;-84
2023/01/07 05:29:47;;;;;;;49.15;28.60;;;8.20;99.90;;;;;;6212607;23;20013;-83
2023/01/07 05:32:12;;;;;;;54.65;27.75;;;8.20;99.90;;;;;;6215278;23;20004;-84
2023/01/07 05:34:38;;;;;;;49.78;27.42;;;8.20;99.90;;;;;;6215592;23;20024;-83
2023/01/07 05:37:04;;;;;;;56.28;29.35;;;8.20;99.90;;;;;;6215353;23;20379;-84
2023/01/07 05:39:32;;;;;;;57.17;30.95;;;8.20;99.90;;;;;;6215555;23;20054;-84
2023/01/07 05:41:58;;;;;;;56.10;29.80;;;8.20;99.90;;;;;;6214169;23;20434;-84
2023/01/07 05:44:24;;;;;;;55.25;29.10;;;8.20;99.90;;;;;;6215600;23;20071;-84
2023/01/07 05:46:50;;;;;;;55.42;30.90;;;8.20;99.90;;;;;;6214854;23;20020;-83
2023/01/07 05:49:15;;;;;;;56.90;30.45;;;8.20;99.90;;;;;;6212933;23;20036;-84
2023/01/07 05:51:41;;;;;;;55.17;29.13;;;8.20;99.90;;;;;;6214465;23;20009;-83
2023/01/07 05:54:07;;;;;;;57.63;30.92;;;8.30;99.90;;;;;;6214374;23;20004;-83
2023/01/07 05:56:33;;;;;;;55.85;29.35;;;8.20;99.90;;;;;;6214431;23;20016;-83
2023/01/07 05:58:59;;;;;;;53.85;29.38;;;8.20;99.90;;;;;;6214242;23;20032;-83
2023/01/07 06:01:25;;;;;;;57.15;30.38;;;8.20;99.90;;;;;;6212578;23;20031;-83
2023/01/07 06:03:50;;;;;;;51.65;28.55;;;8.10;99.90;;;;;;6214215;23;20047;-83
2023/01/07 06:06:16;;;;;;;55.25;30.05;;;8.10;99.90;;;;;;6214372;23;20310;-83
2023/01/07 06:08:42;;;;;;;57.97;29.92;;;8.10;99.90;;;;;;6212835;23;20035;-84
2023/01/07 06:11:08;;;;;;;54.08;30.38;;;8.10;99.90;;;;;;6212879;23;20080;-84
2023/01/07 06:13:34;;;;;;;52.17;27.30;;;8.10;99.90;;;;;;6214264;23;20436;-84
2023/01/07 06:16:04;;;;;;;52.00;29.17;;;8.10;99.90;;;;;;6211910;23;20004;-84
2023/01/07 06:18:30;;;;;;;52.03;27.00;;;8.10;99.90;;;;;;6213933;23;20138;-83
2023/01/07 06:20:56;;;;;;;51.60;27.00;;;8.10;99.90;;;;;;6214134;23;20474;-84
2023/01/07 06:23:22;;;;;;;51.97;27.23;;;8.10;99.90;;;;;;6214178;23;20429;-83
2023/01/07 06:25:48;;;;;;;55.88;27.90;;;8.10;99.90;;;;;;6214143;23;20004;-83
2023/01/07 06:28:14;;;;;;;48.70;27.55;;;8.10;99.90;;;;;;6214034;23;20000;-83
2023/01/07 06:30:40;;;;;;;52.20;28.15;;;8.00;99.90;;;;;;6212122;23;20008;-84
2023/01/07 06:33:06;;;;;;;49.78;27.73;;;8.00;99.90;;;;;;6214141;23;20059;-83
2023/01/07 06:35:32;;;;;;;50.20;27.92;;;8.00;99.90;;;;;;6213778;23;20046;-84
2023/01/07 06:37:59;;;;;;;55.05;29.45;;;7.90;99.90;;;;;;6213992;23;20079;-84
2023/01/07 06:40:25;;;;;;;55.22;27.58;;;7.90;99.90;;;;;;6212533;23;20008;-83
2023/01/07 06:42:54;;;;;;;52.30;28.40;;;7.90;99.90;;;;;;6213840;23;20004;-83
2023/01/07 06:45:23;;;;;;;50.33;28.50;;;7.90;99.90;;;;;;6213958;23;20028;-83
2023/01/07 06:47:49;;;;;;;54.13;27.60;;;8.00;99.90;;;;;;6213838;23;20000;-84
2023/01/07 06:50:15;;;;;;;48.40;27.75;;;7.90;99.90;;;;;;6213897;23;20073;-84
2023/01/07 06:52:41;;;;;;;48.75;26.83;;;7.90;99.90;;;;;;6211734;23;20429;-83
2023/01/07 06:55:07;;;;;;;52.55;27.95;;;7.90;99.90;;;;;;6213967;23;20012;-83
2023/01/07 06:57:33;;;;;;;54.05;28.83;;;7.90;99.90;;;;;;6212037;23;20005;-83
2023/01/07 06:59:58;;;;;;;51.80;27.13;;;7.90;99.90;;;;;;6213672;23;20066;-84
2023/01/07 07:02:26;;;;;;;48.90;27.92;;;7.80;99.90;;;;;;6213740;23;20055;-84
2023/01/07 07:04:52;;;;;;;50.67;28.42;;;7.90;99.90;;;;;;6213917;23;20008;-84
2023/01/07 07:07:18;;;;;;;49.45;27.27;;;7.90;99.90;;;;;;6213784;23;19992;-84
2023/01/07 07:09:45;;;;;;;52.40;28.35;;;7.90;99.90;;;;;;6213791;23;20027;-84
2023/01/07 07:12:11;;;;;;;48.00;26.20;;;7.90;99.90;;;;;;6213381;23;20007;-83
2023/01/07 07:14:36;;;;;;;45.80;26.67;;;7.90;99.90;;;;;;6212123;23;20005;-84
2023/01/07 07:17:02;;;;;;;48.17;26.20;;;7.90;99.90;;;;;;6213583;23;20318;-84
2023/01/07 07:19:28;;;;;;;48.35;27.33;;;7.90;99.90;;;;;;6212090;23;20009;-84
2023/01/07 07:21:54;;;;;;;47.25;26.67;;;7.90;99.90;;;;;;6213635;23;20032;-84
2023/01/07 07:24:19;;;;;;;46.10;26.00;;;7.90;99.90;;;;;;6212100;23;20005;-84
2023/01/07 07:26:45;;;;;;;53.15;27.95;;;7.90;99.90;;;;;;6212007;23;20001;-83
2023/01/07 07:29:11;;;;;;;47.08;26.95;;;7.90;99.90;;;;;;6215856;23;20000;-83
2023/01/07 07:31:37;;;;;;;49.30;26.95;;;7.90;99.90;;;;;;6243896;23;20004;-83
2023/01/07 07:34:03;;;;;;;49.58;25.95;;;7.90;99.90;;;;;;6243962;22;20030;-83
2023/01/07 07:36:29;;;;;;;51.17;27.63;;;7.90;99.90;;;;;;6243921;22;20372;-84
2023/01/07 07:38:55;;;;;;;44.42;26.50;;;7.90;99.90;;;;;;6243861;23;20015;-83
2023/01/07 07:41:21;;;;;;;45.55;26.70;;;7.90;99.90;;;;;;6243667;22;20008;-83
2023/01/07 07:43:46;;;;;;;46.08;27.38;;;7.90;99.90;;;;;;6243754;23;20332;-84
2023/01/07 07:46:12;;;;;;;53.30;28.50;;;7.90;99.90;;;;;;6243676;22;20087;-84
2023/01/07 07:48:38;;;;;;;47.38;27.13;;;7.90;99.90;;;;;;6243588;22;20000;-84
2023/01/07 07:51:04;;;;;;;48.38;26.98;;;8.00;99.90;;;;;;6243721;23;20040;-84
2023/01/07 07:53:30;;;;;;;48.53;27.55;;;8.00;99.90;;;;;;6243809;22;20003;-83
2023/01/07 07:55:55;;;;;;;45.40;25.20;;;8.00;99.90;;;;;;6243627;23;20375;-83
2023/01/07 07:58:21;;;;;;;48.65;27.35;;;8.00;99.90;;;;;;6217048;23;20050;-84
2023/01/07 08:00:47;;;;;;;47.40;27.50;;;8.00;99.90;;;;;;6243402;22;19996;-84
2023/01/07 08:03:13;;;;;;;49.55;27.58;;;8.10;99.90;;;;;;6244141;23;20004;-83
2023/01/07 08:05:41;;;;;;;46.75;26.77;;;8.10;99.90;;;;;;6245634;22;20069;-83
2023/01/07 08:08:10;;;;;;;48.38;25.85;;;8.10;99.90;;;;;;6245530;22;20439;-84
2023/01/07 08:10:36;;;;;;;48.03;27.98;;;8.10;99.90;;;;;;6218145;23;20004;-83
2023/01/07 08:13:03;;;;;;;48.08;27.70;;;8.10;99.90;;;;;;6244900;23;20000;-84
2023/01/07 08:15:29;;;;;;;47.60;26.77;;;8.10;99.90;;;;;;6245330;23;20384;-84
2023/01/07 08:18:04;;;;;;;51.95;28.27;;;8.10;99.90;;;;;;6245315;22;20000;-84
2023/01/07 08:20:29;;;;;;;50.50;26.75;;;8.20;99.90;;;;;;6217845;23;20360;-83
2023/01/07 08:23:02;;;;;;;48.90;27.20;;;8.10;99.90;;;;;;6245262;22;20000;-83
2023/01/07 08:25:29;;;;;;;48.80;27.77;;;8.20;99.90;;;;;;6244981;22;20004;-83
2023/01/07 08:27:56;;;;;;;44.40;25.83;;;8.20;99.90;;;;;;6218133;23;20024;-74
2023/01/07 08:30:22;;;;;;;49.60;26.40;;;8.20;99.90;;;;;;6241042;22;20012;-74
2023/01/07 08:32:48;;;;;;;42.70;25.88;;;8.20;99.90;;;;;;6214871;23;20011;-74
2023/01/07 08:35:15;;;;;;;44.85;25.00;;;8.20;99.90;;;;;;6243048;22;20004;-83
2023/01/07 08:37:41;;;;;;;47.88;25.65;;;8.20;99.90;;;;;;6215035;23;20317;-83
2023/01/07 08:40:08;;;;;;;43.55;25.98;;;8.10;99.90;;;;;;6243020;22;20012;-83
2023/01/07 08:42:33;;;;;;;43.67;25.25;;;8.20;99.90;;;;;;6216020;23;20004;-83
2023/01/07 08:44:59;;;;;;;46.95;27.08;;;8.20;99.90;;;;;;6242942;22;20389;-83
2023/01/07 08:47:26;;;;;;;47.80;25.33;;;8.30;99.90;;;;;;6216020;23;20012;-83
2023/01/07 08:49:53;;;;;;;54.28;26.02;;;8.30;99.90;;;;;;6216007;23;20087;-84
2023/01/07 08:52:20;;;;;;;46.40;25.70;;;8.30;99.90;;;;;;6242521;23;20059;-83
2023/01/07 08:54:47;;;;;;;47.97;26.80;;;8.30;99.90;;;;;;6215992;23;20012;-83
2023/01/07 08:57:13;;;;;;;48.58;26.77;;;8.30;99.90;;;;;;6244409;22;20427;-82
2023/01/07 08:59:39;;;;;;;49.78;26.98;;;8.30;99.90;;;;;;6243942;22;20030;-82
2023/01/07 09:02:12;;;;;;;48.78;26.77;;;8.40;99.90;;;;;;6244394;23;20004;-83
2023/01/07 09:04:38;;;;;;;50.80;28.70;;;8.40;99.90;;;;;;6244971;22;20000;-82
2023/01/07 09:07:03;;;;;;;57.45;29.77;;;8.40;99.90;;;;;;6218040;23;20047;-84
2023/01/07 09:09:29;;;;;;;66.55;32.30;;;8.40;99.90;;;;;;6218103;23;20000;-83
2023/01/07 09:11:55;;;;;;;68.43;35.50;;;8.50;99.90;;;;;;6217829;22;20011;-83
2023/01/07 09:14:20;;;;;;;74.90;35.75;;;8.50;99.90;;;;;;6217602;23;20015;-83
2023/01/07 09:16:46;;;;;;;69.95;35.42;;;8.50;99.90;;;;;;6244584;22;20309;-83
2023/01/07 09:19:12;;;;;;;74.97;38.80;;;8.50;99.90;;;;;;6217872;23;20079;-83
2023/01/07 09:21:37;;;;;;;79.47;40.15;;;8.50;99.90;;;;;;6244714;22;20440;-83
2023/01/07 09:24:03;;;;;;;77.53;41.30;;;8.40;99.90;;;;;;6217989;23;20340;-83
2023/01/07 09:26:29;;;;;;;72.80;39.58;;;8.40;99.90;;;;;;6244836;22;20003;-83
2023/01/07 09:28:55;;;;;;;74.88;36.38;;;8.40;99.90;;;;;;6244647;22;20343;-83
2023/01/07 09:31:21;;;;;;;75.60;37.97;;;8.40;99.90;;;;;;6244542;22;20441;-83
2023/01/07 09:33:47;;;;;;;73.32;36.95;;;8.50;99.90;;;;;;6244753;23;20000;-83
2023/01/07 09:36:13;;;;;;;70.22;36.75;;;8.50;99.90;;;;;;6217882;23;20062;-83
2023/01/07 09:38:38;;;;;;;75.57;39.03;;;8.50;99.90;;;;;;6217631;23;20482;-83
2023/01/07 09:41:15;;;;;;;82.03;36.95;;;8.50;99.90;;;;;;6244514;23;20379;-83
2023/01/07 09:43:47;;;;;;;72.93;37.10;;;8.60;99.90;;;;;;6244699;23;20000;-83
2023/01/07 09:46:14;;;;;;;74.40;37.90;;;8.60;99.90;;;;;;6217590;23;20008;-83
2023/01/07 09:48:50;;;;;;;80.80;37.42;;;8.60;99.90;;;;;;6244373;22;20000;-83
2023/01/07 09:51:22;;;;;;;74.47;38.58;;;8.60;99.90;;;;;;6244633;22;20004;-83
2023/01/07 09:53:51;;;;;;;67.68;34.78;;;8.60;99.90;;;;;;6244530;22;20004;-82
2023/01/07 09:56:25;;;;;;;69.60;35.28;;;8.50;99.90;;;;;;6244534;22;20383;-83
2023/01/07 09:58:52;;;;;;;79.38;37.60;;;8.50;99.90;;;;;;6244141;23;20007;-83
2023/01/07 10:01:48;;;;;;;75.93;37.33;;;8.50;99.90;;;;;;6244252;23;20424;-83
2023/01/07 10:04:23;;;;;;;79.07;37.25;;;8.50;99.90;;;;;;6217559;23;20027;-83
2023/01/07 10:07:20;;;;;;;71.20;37.05;;;8.50;99.90;;;;;;6244380;23;20028;-84
2023/01/07 10:10:07;;;;;;;75.70;38.78;;;8.60;99.90;;;;;;6244349;23;20331;-83
2023/01/07 10:12:47;;;;;;;72.90;36.45;;;8.60;99.90;;;;;;6217219;23;20344;-83
2023/01/07 10:15:31;;;;;;;71.40;34.65;;;8.60;99.90;;;;;;6217362;23;20011;-83
2023/01/07 10:18:30;;;;;;;67.38;34.95;;;8.60;99.90;;;;;;6244241;23;20011;-84
2023/01/07 10:21:15;;;;;;;67.78;34.50;;;8.60;99.90;;;;;;6217406;23;20038;-83
2023/01/07 10:23:45;;;;;;;75.55;38.47;;;8.60;99.90;;;;;;6244279;23;20003;-83
2023/01/07 10:26:21;;;;;;;86.30;39.72;;;8.60;99.90;;;;;;6217278;23;20004;-83
2023/01/07 10:28:56;;;;;;;80.22;39.08;;;8.60;99.90;;;;;;6244218;22;19996;-83
2023/01/07 10:31:25;;;;;;;76.07;38.53;;;8.70;99.90;;;;;;6243813;22;20020;-83
2023/01/07 10:33:51;;;;;;;76.55;38.05;;;8.70;99.90;;;;;;6244264;23;20004;-83
2023/01/07 10:36:37;;;;;;;85.47;41.85;;;8.80;99.90;;;;;;6244084;23;20004;-83
2023/01/07 10:39:20;;;;;;;79.63;39.03;;;8.80;99.90;;;;;;6244218;23;20087;-83
2023/01/07 10:42:21;;;;;;;75.50;37.47;;;8.80;99.90;;;;;;6217397;23;20079;-83
2023/01/07 10:45:05;;;;;;;77.30;38.17;;;8.80;99.90;;;;;;6244034;22;20007;-83
2023/01/07 10:47:43;;;;;;;74.68;36.95;;;8.80;99.90;;;;;;6217064;23;20000;-83
2023/01/07 10:50:40;;;;;;;76.70;37.65;;;8.90;99.90;;;;;;6216987;22;20024;-83
2023/01/07 10:53:20;;;;;;;73.30;37.67;;;8.90;99.90;;;;;;6243777;23;20036;-83
2023/01/07 10:55:52;;;;;;;78.47;39.13;;;8.90;99.90;;;;;;6243820;23;20004;-83
2023/01/07 10:58:18;;;;;;;73.38;38.65;;;8.90;99.90;;;;;;6243822;22;20408;-84
2023/01/07 11:00:46;;;;;;;75.55;37.08;;;9.00;99.90;;;;;;6243805;22;20015;-82
2023/01/07 11:03:20;;;;;;;75.88;38.58;;;9.00;99.90;;;;;;6243848;22;20498;-82
2023/01/07 11:05:52;;;;;;;79.28;39.75;;;9.00;99.90;;;;;;6243833;22;19996;-82
2023/01/07 11:08:31;;;;;;;74.40;37.78;;;9.00;99.90;;;;;;6217015;23;20058;-84
2023/01/07 11:10:57;;;;;;;68.07;36.40;;;9.00;99.90;;;;;;6243946;22;20004;-83
2023/01/07 11:13:36;;;;;;;72.40;37.17;;;9.00;99.90;;;;;;6243948;22;20001;-83
2023/01/07 11:16:16;;;;;;;78.38;36.47;;;9.00;99.90;;;;;;6243403;23;20011;-83
2023/01/07 11:18:53;;;;;;;73.68;37.85;;;9.00;99.90;;;;;;6243643;22;20008;-83
2023/01/07 11:21:39;;;;;;;72.90;38.45;;;9.00;99.90;;;;;;6243498;22;20001;-83
2023/01/07 11:24:43;;;;;;;77.32;39.00;;;9.00;99.90;;;;;;6242557;22;19997;-83
2023/01/07 11:27:15;;;;;;;80.75;42.13;;;9.00;99.90;;;;;;6091696;23;20423;-83
2023/01/07 11:29:42;;;;;;;80.97;39.20;;;9.00;99.90;;;;;;6091622;23;20022;-83
2023/01/07 11:32:41;;;;;;;85.57;41.03;;;9.00;99.90;;;;;;6145142;22;20011;-83
2023/01/07 11:35:21;;;;;;;84.22;41.17;;;9.00;99.90;;;;;;6135666;23;20046;-83
2023/01/07 11:37:48;;;;;;;82.28;40.75;;;9.00;99.90;;;;;;6242695;22;20008;-83
2023/01/07 11:40:14;;;;;;;79.03;43.30;;;9.00;99.90;;;;;;6244659;22;20006;-83
2023/01/07 11:42:55;;;;;;;98.13;47.50;;;9.10;99.90;;;;;;6244599;23;20032;-83
2023/01/07 11:45:36;;;;;;;87.07;44.03;;;9.10;99.90;;;;;;6244356;22;20031;-83
2023/01/07 11:48:04;;;;;;;83.03;42.05;;;9.10;99.90;;;;;;6244372;22;20031;-83
2023/01/07 11:50:38;;;;;;;80.22;41.38;;;9.10;99.90;;;;;;6244555;22;19996;-83
2023/01/07 11:53:10;;;;;;;76.88;40.00;;;9.10;99.90;;;;;;6217738;22;20008;-83
2023/01/07 11:55:39;;;;;;;80.13;42.17;;;9.00;99.90;;;;;;6244478;22;20375;-84
2023/01/07 11:58:16;;;;;;;78.20;40.58;;;9.00;99.90;;;;;;6244246;22;20387;-83
2023/01/07 12:00:42;;;;;;;74.22;39.13;;;9.00;99.90;;;;;;6217618;23;20004;-84
2023/01/07 12:03:12;;;;;;;78.68;40.00;;;9.00;99.90;;;;;;6244339;22;20007;-84
2023/01/07 12:05:40;;;;;;;80.75;40.30;;;9.10;99.90;;;;;;6244588;22;20004;-84
2023/01/07 12:08:06;;;;;;;81.75;42.90;;;9.00;99.90;;;;;;6244307;23;20058;-83
2023/01/07 12:10:35;;;;;;;80.35;41.42;;;9.00;99.90;;;;;;6244303;22;20359;-84
2023/01/07 12:13:15;;;;;;;74.85;39.92;;;9.00;99.90;;;;;;6217497;23;20088;-83
2023/01/07 12:16:08;;;;;;;76.97;39.60;;;9.00;99.90;;;;;;6217417;22;20083;-83
2023/01/07 12:19:08;;;;;;;73.35;38.00;;;9.00;99.90;;;;;;6213235;23;20008;-84
2023/01/07 12:21:44;;;;;;;69.85;35.08;;;9.00;99.90;;;;;;6245414;22;20035;-83
2023/01/07 12:24:40;;;;;;;69.55;36.55;;;9.10;99.90;;;;;;6218680;22;20086;-83
2023/01/07 12:27:18;;;;;;;74.15;35.97;;;9.20;99.90;;;;;;6245297;22;20524;-83
2023/01/07 12:30:15;;;;;;;69.13;34.00;;;9.20;99.90;;;;;;6245265;22;20019;-83
2023/01/07 12:32:50;;;;;;;67.28;34.13;;;9.20;99.90;;;;;;6245432;22;20004;-83
2023/01/07 12:35:44;;;;;;;64.47;33.00;;;9.20;99.90;;;;;;6215426;22;20038;-84
2023/01/07 12:38:13;;;;;;;65.15;34.65;;;9.30;99.90;;;;;;6212058;23;20004;-83
2023/01/07 12:40:50;;;;;;;65.45;33.17;;;9.30;99.90;;;;;;6245023;22;20007;-84
2023/01/07 12:43:27;;;;;;;67.85;34.10;;;9.30;99.90;;;;;;6244761;22;20022;-83
2023/01/07 12:46:06;;;;;;;55.67;31.80;;;9.30;99.90;;;;;;6216837;23;20008;-79
2023/01/07 12:48:44;;;;;;;66.50;32.80;;;9.30;99.90;;;;;;6244961;23;20003;-79
2023/01/07 12:51:16;;;;;;;58.70;31.77;;;9.30;99.90;;;;;;6245299;23;20383;-79
2023/01/07 12:53:51;;;;;;;56.85;30.52;;;9.30;99.90;;;;;;6244966;23;20000;-79
2023/01/07 12:56:24;;;;;;;62.83;32.97;;;9.20;99.90;;;;;;6244557;23;20408;-79